Flight Track Log - Related Links

Times and Time Zones

All times are in EST time to prevent confusion due to time zone crossing. See the UPS2872 flight status page for this flight to view local times or setup timezone preferences in your user account.

Time Position Orientation Groundspeed Altitude Reporting Facility
EST Latitude Longitude Course Direction KTS MPH feet Rate Location/Type
Tue 04:02:58 PM 38.1770 -85.7450 270° West 120 138  Level FlightAware
Tue 04:03:30 PM 38.1540 -85.7380 167° South 161 185 1,300 2,172 Climbing FlightAware
Tue 04:03:56 PM 38.1340 -85.7320 167° South 184 212 2,100 2,069 Climbing FlightAware
Tue 04:04:28 PM 38.1020 -85.7320 180° South 218 251 3,300 2,344 Climbing FlightAware
Tue 04:05:00 PM 38.0760 -85.7580 218° Southwest 255 293 4,600 3,281 Climbing FlightAware
Tue 04:05:32 PM 38.0760 -85.8030 270° West 248 285 6,800 3,300 Climbing FlightAware
Tue 04:06:00 PM 38.0770 -85.8460 272° West 258 297 7,900 2,903 Climbing FlightAware
Tue 04:06:34 PM 38.0750 -85.8970 267° West 257 296 9,800 2,455 Climbing FlightAware
Tue 04:07:06 PM 38.0720 -85.9460 266° West 287 330 10,600 1,565 Climbing FlightAware
Tue 04:07:20 PM 38.0710 -85.9710 267° West 305 351 11,000 2,600 Climbing FlightAware
Tue 04:08:06 PM 38.0850 -86.0540 282° West 332 382 13,200 3,308 Climbing FlightAware
Tue 04:08:38 PM 38.0960 -86.1170 283° West 339 390 15,300 3,529 Climbing FlightAware
Tue 04:09:31 PM 38.1070 -86.2230 278° West 347 399 18,200 3,250 Climbing FlightAware
Tue 04:10:14 PM 38.1000 -86.3120 264° West 353 406 20,500 2,886 Climbing FlightAware
Tue 04:10:50 PM 38.0920 -86.3860 262° West 362 417 22,000 2,553 Climbing FlightAware
Tue 04:11:48 PM 38.0780 -86.5090 262° West 374 430 24,500 2,609 Climbing FlightAware
Tue 04:12:22 PM 38.0690 -86.5830 261° West 377 434 26,000 2,630 Climbing FlightAware
Tue 04:13:01 PM 38.0600 -86.6720 263° West 381 438 27,700 2,384 Climbing FlightAware
Tue 04:13:35 PM 38.0530 -86.7460 263° West 382 440 28,900 2,400 Climbing FlightAware
Tue 04:14:36 PM 38.0410 -86.8800 264° West 371 427 31,500 2,339 Climbing FlightAware
Tue 04:15:33 PM 38.0290 -87.0020 263° West 366 421 33,500 2,118 Climbing FlightAware
Tue 04:16:01 PM 38.0230 -87.0630 263° West 362 417 34,500 1,500 Climbing FlightAware
Tue 04:17:13 PM 38.0090 -87.2120 263° West 351 404 36,000 841 Climbing FlightAware
Tue 04:17:48 PM 38.0020 -87.2810 263° West 347 399 36,000  Level FlightAware
Tue 04:18:47 PM 37.9900 -87.4030 263° West 350 403 36,000  Level FlightAware
Tue 04:19:20 PM 37.9830 -87.4690 262° West 352 405 36,000  Level FlightAware
Tue 04:19:54 PM 37.9760 -87.5380 263° West 354 407 36,000  Level FlightAware
Tue 04:21:07 PM 37.9610 -87.6900 263° West 357 411 36,000  Level FlightAware
Tue 04:21:44 PM 37.9530 -87.7660 262° West 359 413 36,000  Level FlightAware
Tue 04:22:12 PM 37.9470 -87.8240 263° West 359 413 36,000  Level FlightAware
Tue 04:23:10 PM 37.9340 -87.9460 262° West 361 415 36,000  Level FlightAware
Tue 04:23:38 PM 37.9280 -88.0030 262° West 360 414 36,000  Level FlightAware
Tue 04:24:40 PM 37.9140 -88.1330 262° West 359 413 36,000  Level FlightAware
Tue 04:25:15 PM 37.9060 -88.2070 262° West 358 412 36,000  Level FlightAware
Tue 04:25:56 PM 37.8970 -88.2900 262° West 357 411 36,000  Level FlightAware
Tue 04:26:53 PM 37.8850 -88.4090 263° West 355 409 36,000  Level FlightAware
Tue 04:27:56 PM 37.8700 -88.5380 262° West 354 407 36,000  Level FlightAware
Tue 04:28:16 PM 37.8660 -88.5780 263° West 353 406 36,000  Level FlightAware
Tue 04:29:09 PM 37.8540 -88.6880 262° West 353 406 36,000  Level FlightAware
Tue 04:30:05 PM 37.8410 -88.8020 262° West 353 406 36,000  Level FlightAware
Tue 04:30:38 PM 37.8340 -88.8660 262° West 353 406 36,000  Level FlightAware
Tue 04:31:35 PM 37.8200 -88.9860 262° West 353 406 36,000  Level FlightAware
Tue 04:32:30 PM 37.8080 -89.0970 262° West 352 405 36,000  Level FlightAware
Tue 04:32:53 PM 37.8020 -89.1440 261° West 351 404 36,000  Level FlightAware
Tue 04:33:54 PM 37.7880 -89.2670 262° West 349 402 36,000  Level FlightAware
Tue 04:34:28 PM 37.7800 -89.3350 262° West 349 402 36,000  Level FlightAware
Tue 04:35:19 PM 37.7680 -89.4380 262° West 351 404 36,000  Level FlightAware
Tue 04:36:05 PM 37.7570 -89.5310 262° West 351 404 36,000  Level FlightAware
Tue 04:36:35 PM 37.7500 -89.5910 262° West 351 404 36,000  Level FlightAware
Tue 04:37:38 PM 37.7340 -89.7200 261° West 352 405 36,000  Level FlightAware
Tue 04:38:06 PM 37.7270 -89.7770 261° West 352 405 36,000  Level FlightAware
Tue 04:39:06 PM 37.7130 -89.8980 262° West 351 404 36,000  Level FlightAware
Tue 04:39:57 PM 37.7000 -90.0000 261° West 350 403 36,000  Level FlightAware
Tue 04:40:53 PM 37.6860 -90.1130 261° West 350 403 36,000  Level FlightAware
Tue 04:41:12 PM 37.6820 -90.1510 262° West 350 403 36,000  Level FlightAware
Tue 04:42:11 PM 37.6670 -90.2690 261° West 349 402 36,000  Level FlightAware
Tue 04:43:05 PM 37.6530 -90.3790 261° West 350 403 36,000  Level FlightAware
Tue 04:43:35 PM 37.6450 -90.4400 261° West 349 402 36,000  Level FlightAware
Tue 04:44:29 PM 37.6310 -90.5480 261° West 347 399 36,000  Level FlightAware
Tue 04:45:11 PM 37.6210 -90.6300 261° West 347 399 36,000  Level FlightAware
Tue 04:46:09 PM 37.6060 -90.7480 261° West 347 399 36,000  Level FlightAware
Tue 04:47:08 PM 37.5900 -90.8650 260° West 348 400 36,000  Level FlightAware
Tue 04:48:00 PM 37.5770 -90.9670 261° West 348 400 36,000  Level FlightAware
Tue 04:48:58 PM 37.5620 -91.0840 261° West 348 400 36,000  Level FlightAware
Tue 04:49:30 PM 37.5530 -91.1490 260° West 348 400 36,000  Level FlightAware
Tue 04:50:32 PM 37.5370 -91.2720 261° West 348 400 36,000  Level FlightAware
Tue 04:51:31 PM 37.5210 -91.3910 260° West 347 399 36,000  Level FlightAware
Tue 04:52:09 PM 37.5110 -91.4650 260° West 348 400 36,000  Level FlightAware
Tue 04:52:57 PM 37.4980 -91.5600 260° West 346 398 36,000  Level FlightAware
Tue 04:53:51 PM 37.4830 -91.6650 260° West 347 399 36,000  Level FlightAware
Tue 04:54:18 PM 37.4750 -91.7220 260° West 346 398 36,000  Level FlightAware
Tue 04:55:25 PM 37.4570 -91.8550 260° West 347 399 36,000  Level FlightAware
Tue 04:56:13 PM 37.4440 -91.9470 260° West 347 399 36,000  Level FlightAware
Tue 04:57:18 PM 37.4260 -92.0770 260° West 348 400 36,000  Level FlightAware
Tue 04:58:09 PM 37.4110 -92.1810 260° West 349 402 36,000  Level FlightAware
Tue 04:58:49 PM 37.3990 -92.2610 259° West 349 402 36,000  Level FlightAware
Tue 04:59:43 PM 37.3790 -92.3660 257° West 343 395 36,000  Level FlightAware
Tue 05:00:09 PM 37.3550 -92.4090 235° Southwest 343 395 36,000  Level FlightAware
Tue 05:01:11 PM 37.2970 -92.5090 234° Southwest 344 396 36,000  Level FlightAware
Tue 05:02:07 PM 37.2450 -92.5980 234° Southwest 343 395 36,000  Level FlightAware
Tue 05:02:35 PM 37.2210 -92.6460 238° Southwest 345 397 36,000  Level FlightAware
Tue 05:03:27 PM 37.1940 -92.7440 251° West 351 404 36,000  Level FlightAware
Tue 05:04:19 PM 37.1790 -92.8490 260° West 351 404 36,000  Level FlightAware
Tue 05:04:47 PM 37.1720 -92.9050 261° West 352 405 36,000  Level FlightAware
Tue 05:05:47 PM 37.1570 -93.0250 261° West 352 405 36,000  Level FlightAware
Tue 05:06:35 PM 37.1440 -93.1220 260° West 352 405 36,000  Level FlightAware
Tue 05:07:17 PM 37.1330 -93.2080 261° West 352 405 36,000  Level FlightAware
Tue 05:08:01 PM 37.1210 -93.2960 260° West 352 405 36,000  Level FlightAware
Tue 05:08:45 PM 37.1090 -93.3830 260° West 351 404 36,000  Level FlightAware
Tue 05:09:27 PM 37.0980 -93.4680 261° West 351 404 36,000  Level FlightAware
Tue 05:10:19 PM 37.0840 -93.5710 260° West 350 403 36,000  Level FlightAware
Tue 05:10:49 PM 37.0760 -93.6300 260° West 351 404 36,000  Level FlightAware
Tue 05:11:24 PM 37.0680 -93.6840 259° West 351 404 36,000  Level FlightAware
Tue 05:12:19 PM 37.0510 -93.8120 261° West 349 402 36,000  Level FlightAware
Tue 05:13:15 PM 37.0360 -93.9200 260° West 349 402 36,000  Level FlightAware
Tue 05:13:35 PM 37.0300 -93.9620 260° West 349 402 36,000  Level FlightAware
Tue 05:14:29 PM 37.0150 -94.0690 260° West 349 402 36,000  Level FlightAware
Tue 05:15:15 PM 37.0020 -94.1590 260° West 348 400 36,000  Level FlightAware
Tue 05:16:13 PM 36.9850 -94.2750 260° West 348 400 36,000  Level FlightAware
Tue 05:17:25 PM 36.9640 -94.4170 260° West 346 398 36,000  Level FlightAware
Tue 05:17:49 PM 36.9570 -94.4640 259° West 346 398 36,000  Level FlightAware
Tue 05:18:45 PM 36.9400 -94.5740 259° West 345 397 36,000  Level FlightAware
Tue 05:19:41 PM 36.9230 -94.6820 259° West 346 398 36,000  Level FlightAware
Tue 05:20:33 PM 36.9070 -94.7860 259° West 346 398 36,000  Level FlightAware
Tue 05:21:27 PM 36.8910 -94.8900 259° West 345 397 36,000  Level FlightAware
Tue 05:22:11 PM 36.8780 -94.9760 259° West 344 396 36,000  Level FlightAware
Tue 05:23:07 PM 36.8610 -95.0850 259° West 344 396 36,000  Level FlightAware
Tue 05:23:35 PM 36.8520 -95.1400 258° West 344 396 36,000  Level FlightAware
Tue 05:24:37 PM 36.8330 -95.2600 259° West 343 395 36,000  Level FlightAware
Tue 05:25:23 PM 36.8190 -95.3470 259° West 342 394 36,000  Level FlightAware
Tue 05:26:07 PM 36.8050 -95.4340 259° West 342 394 36,000  Level FlightAware
Tue 05:26:59 PM 36.7890 -95.5340 259° West 343 395 36,000  Level FlightAware
Tue 05:27:20 PM 36.7820 -95.5740 258° West 343 395 36,000  Level FlightAware
Tue 05:28:20 PM 36.7640 -95.6870 259° West 343 395 36,000  Level FlightAware
Tue 05:29:15 PM 36.7460 -95.7950 258° West 344 396 36,000  Level FlightAware
Tue 05:30:07 PM 36.7290 -95.8980 258° West 343 395 36,000  Level FlightAware
Tue 05:30:44 PM 36.7180 -95.9680 259° West 342 394 36,000  Level FlightAware
Tue 05:31:25 PM 36.7040 -96.0500 258° West 342 394 36,000  Level FlightAware
Tue 05:32:13 PM 36.6890 -96.1420 259° West 343 395 36,000  Level FlightAware
Tue 05:32:53 PM 36.6760 -96.2190 258° West 342 394 36,000  Level FlightAware
Tue 05:33:46 PM 36.6590 -96.3190 258° West 341 392 36,000  Level FlightAware
Tue 05:34:38 PM 36.6420 -96.4200 258° West 342 394 36,000  Level FlightAware
Tue 05:35:27 PM 36.6260 -96.5150 258° West 343 395 36,000  Level FlightAware
Tue 05:35:56 PM 36.6170 -96.5690 258° West 342 394 36,000  Level FlightAware
Tue 05:36:58 PM 36.5960 -96.6870 258° West 340 391 36,000  Level FlightAware
Tue 05:37:48 PM 36.5790 -96.7850 258° West 339 390 36,000  Level FlightAware
Tue 05:38:39 PM 36.5630 -96.8800 258° West 338 389 36,000  Level FlightAware
Tue 05:39:36 PM 36.5440 -96.9900 258° West 337 388 36,000  Level FlightAware
Tue 05:40:29 PM 36.5260 -97.0890 257° West 336 387 36,000  Level FlightAware
Tue 05:41:19 PM 36.5090 -97.1840 257° West 338 389 36,000  Level FlightAware
Tue 05:41:55 PM 36.4970 -97.2520 258° West 338 389 36,000  Level FlightAware
Tue 05:42:39 PM 36.4830 -97.3350 258° West 337 388 36,000  Level FlightAware
Tue 05:43:30 PM 36.4650 -97.4320 257° West 337 388 36,000  Level FlightAware
Tue 05:44:27 PM 36.4460 -97.5390 258° West 337 388 36,000  Level FlightAware
Tue 05:45:15 PM 36.4300 -97.6290 258° West 337 388 36,000  Level FlightAware
Tue 05:46:13 PM 36.4100 -97.7390 257° West 337 388 36,000  Level FlightAware
Tue 05:47:03 PM 36.3920 -97.8340 257° West 339 390 36,000  Level FlightAware
Tue 05:47:23 PM 36.3850 -97.8720 257° West 339 390 36,000  Level FlightAware
Tue 05:48:19 PM 36.3660 -97.9780 257° West 340 391 36,000  Level FlightAware
Tue 05:48:35 PM 36.3600 -98.0080 256° West 340 391 36,000  Level FlightAware
Tue 05:49:31 PM 36.3410 -98.1140 257° West 340 391 36,000  Level FlightAware
Tue 05:50:23 PM 36.3220 -98.2130 257° West 340 391 36,000  Level FlightAware
Tue 05:51:08 PM 36.3070 -98.2980 258° West 339 390 36,000  Level FlightAware
Tue 05:51:53 PM 36.2910 -98.3830 257° West 338 389 36,000  Level FlightAware
Tue 05:52:22 PM 36.2800 -98.4370 256° West 337 388 36,000  Level FlightAware
Tue 05:53:20 PM 36.2600 -98.5450 257° West 338 389 36,000  Level FlightAware
Tue 05:54:08 PM 36.2430 -98.6370 257° West 341 392 36,000  Level FlightAware
Tue 05:55:02 PM 36.2230 -98.7400 256° West 342 394 36,000  Level FlightAware
Tue 05:55:47 PM 36.2070 -98.8250 257° West 341 392 36,000  Level FlightAware
Tue 05:56:22 PM 36.1940 -98.8910 256° West 340 391 36,000  Level FlightAware
Tue 05:57:08 PM 36.1770 -98.9780 256° West 339 390 36,000  Level FlightAware
Tue 05:57:32 PM 36.1680 -99.0230 256° West 339 390 36,000  Level FlightAware
Tue 05:58:01 PM 36.1570 -99.0790 256° West 339 390 36,000  Level FlightAware
Tue 05:59:05 PM 36.1340 -99.1980 257° West 339 390 36,000  Level FlightAware
Tue 05:59:50 PM 36.1170 -99.2840 256° West 339 390 36,000  Level FlightAware
Tue 06:00:14 PM 36.1090 -99.3280 257° West 339 390 36,000  Level FlightAware
Tue 06:01:06 PM 36.0890 -99.4260 256° West 338 389 36,000  Level FlightAware
Tue 06:01:30 PM 36.0800 -99.4710 256° West 339 390 36,000  Level FlightAware
Tue 06:02:24 PM 36.0610 -99.5700 257° West 338 389 36,000  Level FlightAware
Tue 06:03:11 PM 36.0420 -99.6620 256° West 339 390 36,000  Level FlightAware
Tue 06:03:55 PM 36.0260 -99.7430 256° West 339 390 36,000  Level FlightAware
Tue 06:04:51 PM 36.0050 -99.8490 256° West 341 392 36,000  Level FlightAware
Tue 06:05:32 PM 35.9890 -99.9270 256° West 342 394 36,000  Level FlightAware
Tue 06:06:24 PM 35.9750 -100.0270 260° West 345 397 36,000  Level FlightAware
Tue 06:07:10 PM 35.9630 -100.1130 260° West 343 395 36,000  Level FlightAware
Tue 06:07:34 PM 35.9550 -100.1610 258° West 340 391 36,000  Level FlightAware
Tue 06:08:32 PM 35.9380 -100.2720 259° West 336 387 36,000  Level FlightAware
Tue 06:09:29 PM 35.9220 -100.3770 259° West 335 386 36,000  Level FlightAware
Tue 06:10:22 PM 35.9070 -100.4750 259° West 334 384 36,000  Level FlightAware
Tue 06:10:51 PM 35.8980 -100.5300 259° West 331 381 36,000  Level FlightAware
Tue 06:11:36 PM 35.8850 -100.6140 259° West 335 386 36,000  Level FlightAware
Tue 06:12:42 PM 35.8650 -100.7410 259° West 340 391 36,000  Level FlightAware
Tue 06:13:34 PM 35.8500 -100.8350 259° West 340 391 36,000  Level FlightAware
Tue 06:13:58 PM 35.8430 -100.8840 260° West 341 392 36,000  Level FlightAware
Tue 06:14:58 PM 35.8240 -101.0000 259° West 344 396 36,000  Level FlightAware
Tue 06:15:46 PM 35.8100 -101.0920 259° West 346 398 36,000  Level FlightAware
Tue 06:16:27 PM 35.7970 -101.1710 259° West 346 398 36,000  Level FlightAware
Tue 06:17:02 PM 35.7860 -101.2380 259° West 346 398 36,000  Level FlightAware
Tue 06:17:30 PM 35.7770 -101.2920 258° West 345 397 36,000  Level FlightAware
Tue 06:18:35 PM 35.7570 -101.4180 259° West 346 398 36,000  Level FlightAware
Tue 06:19:28 PM 35.7400 -101.5200 258° West 347 399 36,000  Level FlightAware
Tue 06:20:24 PM 35.7230 -101.6290 259° West 348 400 36,000  Level FlightAware
Tue 06:21:19 PM 35.7050 -101.7340 258° West 350 403 36,000  Level FlightAware
Tue 06:22:06 PM 35.6900 -101.8280 259° West 347 399 36,000  Level FlightAware
Tue 06:22:56 PM 35.6740 -101.9230 258° West 341 392 36,000  Level FlightAware
Tue 06:23:53 PM 35.6560 -102.0310 258° West 337 388 36,000  Level FlightAware
Tue 06:24:45 PM 35.6400 -102.1280 259° West 340 391 36,000  Level FlightAware
Tue 06:25:37 PM 35.6230 -102.2280 258° West 345 397 36,000  Level FlightAware
Tue 06:26:17 PM 35.6100 -102.3050 258° West 349 402 36,000  Level FlightAware
Tue 06:26:38 PM 35.6030 -102.3450 258° West 350 403 36,000  Level FlightAware
Tue 06:27:38 PM 35.5830 -102.4630 258° West 353 406 36,000  Level FlightAware
Tue 06:28:45 PM 35.5610 -102.5930 258° West 350 403 36,000  Level FlightAware
Tue 06:29:38 PM 35.5430 -102.6960 258° West 353 406 36,000  Level FlightAware
Tue 06:30:25 PM 35.5270 -102.7890 258° West 358 412 36,000  Level FlightAware
Tue 06:31:19 PM 35.5080 -102.8980 258° West 365 420 36,000  Level FlightAware
Tue 06:32:06 PM 35.4910 -102.9940 258° West 366 421 36,000  Level FlightAware
Tue 06:33:11 PM 35.4680 -103.1250 258° West 360 414 36,000  Level FlightAware
Tue 06:34:04 PM 35.4490 -103.2300 258° West 364 419 36,000  Level FlightAware
Tue 06:34:21 PM 35.4430 -103.2630 257° West 365 420 36,000  Level FlightAware
Tue 06:34:56 PM 35.4300 -103.3330 257° West 369 425 36,000  Level FlightAware
Tue 06:35:47 PM 35.4120 -103.4390 258° West 370 426 36,000  Level FlightAware
Tue 06:36:12 PM 35.4020 -103.4900 256° West 369 425 36,000  Level FlightAware
Tue 06:36:39 PM 35.3920 -103.5460 258° West 368 423 36,000  Level FlightAware
Tue 06:37:31 PM 35.3730 -103.6510 258° West 365 420 36,000  Level FlightAware
Tue 06:38:24 PM 35.3540 -103.7560 258° West 355 409 36,000  Level FlightAware
Tue 06:39:09 PM 35.3380 -103.8450 258° West 355 409 36,000  Level FlightAware
Tue 06:39:41 PM 35.3260 -103.9080 257° West 354 407 36,000  Level FlightAware
Tue 06:40:14 PM 35.3140 -103.9710 257° West 352 405 36,000  Level FlightAware
Tue 06:40:44 PM 35.3040 -104.0300 258° West 352 405 36,000  Level FlightAware
Tue 06:41:49 PM 35.2810 -104.1510 257° West 349 402 36,000  Level FlightAware
Tue 06:42:42 PM 35.2610 -104.2570 257° West 352 405 36,000 -59 Level FlightAware
Tue 06:43:31 PM 35.2430 -104.3520 257° West 347 399 35,900 -475 Descending FlightAware
Tue 06:44:23 PM 35.2250 -104.4510 257° West 340 391 35,200 -941 Descending FlightAware
Tue 06:45:13 PM 35.2070 -104.5420 256° West 332 382 34,300 -1,149 Descending FlightAware
Tue 06:45:57 PM 35.1920 -104.6220 257° West 328 377 33,400 -1,176 Descending FlightAware
Tue 06:46:55 PM 35.1720 -104.7260 257° West 323 372 32,300 -1,118 Descending FlightAware
Tue 06:47:39 PM 35.1580 -104.8030 257° West 321 369 31,500 -1,032 Descending FlightAware
Tue 06:48:28 PM 35.1410 -104.8900 257° West 316 364 30,700 -1,109 Descending FlightAware
Tue 06:49:11 PM 35.1260 -104.9650 256° West 320 368 29,800 -1,085 Descending FlightAware
Tue 06:50:02 PM 35.1100 -105.0500 257° West 315 362 29,000 -1,063 Descending FlightAware
Tue 06:50:47 PM 35.0980 -105.1330 260° West 320 368 28,100 -1,091 Descending FlightAware
Tue 06:51:41 PM 35.0850 -105.2280 261° West 321 369 27,200 -1,125 Descending FlightAware
Tue 06:52:39 PM 35.0690 -105.3320 259° West 314 361 26,000 -1,446 Descending FlightAware
Tue 06:53:04 PM 35.0620 -105.3740 259° West 313 360 25,200 -1,765 Descending FlightAware
Tue 06:54:04 PM 35.0450 -105.4780 259° West 309 356 23,500 -1,722 Descending FlightAware
Tue 06:54:59 PM 35.0300 -105.5680 259° West 307 353 21,900 -1,769 Descending FlightAware
Tue 06:55:22 PM 35.0230 -105.6110 259° West 309 356 21,200 -575 Descending FlightAware
Tue 06:56:12 PM 35.0100 -105.6830 258° West 309 356 21,200  Level FlightAware
Tue 06:57:01 PM 34.9980 -105.7540 258° West 309 356 21,200  Level FlightAware
Tue 06:57:51 PM 34.9850 -105.8270 258° West 309 356 21,200  Level FlightAware
Tue 06:58:39 PM 34.9730 -105.8960 258° West 309 356 21,200  Level FlightAware
Tue 06:59:15 PM 34.9640 -105.9490 258° West 309 356 21,200 -5,561 Level FlightAware
Tue 07:00:01 PM 34.9561 -106.0617 258° West 289 333 13,600 -6,811 Descending Albuquerque Center
Tue 07:00:29 PM 34.9572 -106.1167 271° West 274 315 12,800 -787 Descending Albuquerque Center
Tue 07:05:44 PM 34.9180 -106.5060 271° West 203 234 9,100 -743 Descending FlightAware
Tue 07:06:08 PM 34.9120 -106.5300 253° West 207 238 8,600 -577 Descending FlightAware
Tue 07:06:36 PM 34.9050 -106.5570 252° West 207 238 8,600  Level FlightAware
Tue 07:07:12 PM 34.8970 -106.5910 254° West 207 238 8,600  Level FlightAware
Tue 07:07:36 PM 34.8910 -106.6140 252° West 207 238 8,600  Level FlightAware
Tue 07:07:48 PM 34.8880 -106.6250 252° West 207 238 8,600  Level FlightAware
Tue 07:08:01 PM 34.8850 -106.6370 253° West 207 238 8,600 -1,565 Level FlightAware
Tue 07:08:34 PM 34.9044 -106.6747 253° West 177 204 7,400 -947 Descending Albuquerque Center
Tue 07:09:17 PM 34.9283 -106.6972 322° Northwest 164 189 7,400 -100 Level Albuquerque Center
Tue 07:09:34 PM 34.9417 -106.7042 337° Northwest 166 191 7,300 -581 Descending Albuquerque Center
Tue 07:10:19 PM 34.9694 -106.6942 16° North 157 181 6,800 -787 Descending Albuquerque Center
Tue 07:10:35 PM 34.9803 -106.6811 45° Northeast 151 174 6,500 -774 Descending Albuquerque Center
Tue 07:11:21 PM 34.9989 -106.6589 44° Northeast 150 173 6,000 -787 Descending Albuquerque Center
Tue 07:11:36 PM 35.0081 -106.6456 50° Northeast 147 169 5,700 -677 Descending Albuquerque Center
Tue 07:12:23 PM 35.0300 -106.6208 43° Northeast 146 168 5,300 -511 Descending Albuquerque Center

Login

Don't have an account? Register now (free) for customized features, flight alerts, and more!